Weather observations for the past three days for
San Juan Fernando Luis Ribas Dominicci
| Date | Time (ast) | Wind (mph) | Vis. (mi.) | Weather | Sky Cond. | Temperature (ºF) | Relative Humidity | Wind Chill (°F) | Heat Index (°F) | Pressure | Precipitation (in) | ||||||
|---|---|---|---|---|---|---|---|---|---|---|---|---|---|---|---|---|---|
| Air | Dwpt | 6 hour | altimeter (in) | sea level (mb) | 1 hr | 3 hr | 6 hr | ||||||||||
| Max. | Min. | ||||||||||||||||
| 04 | 17:45 | S 10 G 20 | 10.00 | Partly Cloudy | SCT030 SCT080 | 86 | 71.6 | 62% | 92 | 29.95 | 0.0 | ||||||
| 04 | 16:45 | S 16 G 21 | 10.00 | Partly Cloudy | SCT030 SCT080 | 87.8 | 71.6 | 59% | 94 | 29.93 | 0.0 | ||||||
| 04 | 15:45 | S 8 G 17 | 10.00 | Partly Cloudy | SCT030 SCT080 | 89.6 | 71.6 | 55% | 96 | 29.93 | 0.0 | ||||||
| 04 | 14:50 | E 13 G 24 | 10.00 | Partly Cloudy | SCT030 SCT080 | 86 | 75.2 | 70% | 95 | 29.95 | 0.0 | ||||||
| 04 | 13:59 | E 16 G 22 | 10.00 | Partly Cloudy | SCT040 SCT070 | 84.2 | 75.2 | 74% | 92 | 29.96 | 0.0 | ||||||
| 04 | 12:45 | E 17 | 10.00 | Partly Cloudy | SCT040 SCT070 | 84.2 | 73.4 | 70% | 91 | 29.98 | 0.0 | ||||||
| 04 | 11:50 | E 13 G 22 | 10.00 | Partly Cloudy | SCT040 SCT070 | 84.2 | 75.2 | 74% | 92 | 30.01 | 0.0 | ||||||
| 04 | 10:45 | E 16 | 10.00 | Mostly Cloudy | SCT030 BKN070 | 84.2 | 73.4 | 70% | 91 | 30 | 0.0 | ||||||
| 04 | 09:45 | E 14 | 10.00 | Mostly Cloudy | SCT030 BKN070 | 86 | 71.6 | 62% | 92 | 30.01 | 0.0 | ||||||
| 04 | 08:45 | SE 12 | 10.00 | Partly Cloudy | SCT030 SCT070 | 84.2 | 71.6 | 66% | 90 | 30.02 | 0.0 | ||||||
| 04 | 07:45 | SE 7 | 10.00 | Partly Cloudy | SCT030 SCT080 | 82.4 | 71.6 | 70% | 87 | 30.02 | 0.0 | ||||||
| 04 | 06:45 | S 3 | 10.00 | Partly Cloudy | SCT030 SCT080 | 78.8 | 71.6 | 79% | 82 | 30.01 | 0.0 | ||||||
| 03 | 18:45 | SE 10 | 10.00 | Partly Cloudy | SCT030 SCT080 | 84.2 | 69.8 | 62% | 88 | 29.97 | 0.0 | ||||||
| 03 | 17:45 | E 15 | 10.00 | Partly Cloudy | SCT030 SCT080 | 84.2 | 73.4 | 70% | 91 | 29.96 | 0.0 | ||||||
| 03 | 16:45 | E 15 | 10.00 | Partly Cloudy | SCT030 SCT070 | 84.2 | 73.4 | 70% | 91 | 29.95 | 0.0 | ||||||
| 03 | 15:45 | E 18 G 25 | 10.00 | Mostly Cloudy | SCT030 BKN070 | 84.2 | 71.6 | 66% | 90 | 29.96 | 0.0 | ||||||
| 03 | 14:45 | E 14 | 10.00 | Mostly Cloudy | SCT030 BKN070 | 84.2 | 73.4 | 70% | 91 | 29.98 | 0.0 | ||||||
| 03 | 13:45 | E 16 G 26 | 10.00 | Partly Cloudy | SCT030 SCT070 | 86 | 69.8 | 59% | 91 | 29.99 | 0.0 | ||||||
| 03 | 12:45 | E 16 G 24 | 10.00 | Mostly Cloudy | SCT030 BKN070 | 84.2 | 73.4 | 70% | 91 | 30.02 | 0.0 | ||||||
| 03 | 11:45 | E 18 G 24 | 10.00 | Mostly Cloudy | SCT030 BKN070 | 84.2 | 73.4 | 70% | 91 | 30.02 | 0.0 | ||||||
| 03 | 10:45 | E 14 | 10.00 | Mostly Cloudy | SCT030 BKN070 | 84.2 | 73.4 | 70% | 91 | 30.05 | 0.0 | ||||||
| 03 | 09:45 | E 14 | 10.00 | Mostly Cloudy | SCT030 BKN070 | 84.2 | 73.4 | 70% | 91 | 30.05 | 0.0 | ||||||
| 03 | 08:50 | E 10 | 10.00 | Partly Cloudy | SCT030 SCT | 82.4 | 71.6 | 70% | 87 | 30.06 | 0.0 | ||||||
| 03 | 07:45 | SE 6 | 10.00 | Clear | SKC | 82.4 | 71.6 | 70% | 87 | 30.04 | 0.0 | ||||||
| 03 | 06:50 | S 3 | 10.00 | Clear | SKC | 78.8 | 71.6 | 79% | 82 | 30.03 | 0.0 | ||||||
| 02 | 18:45 | E 14 | 10.00 | Mostly Cloudy | SCT030 BKN070 | 82.4 | 71.6 | 70% | 87 | 29.97 | 0.0 | ||||||
| 02 | 17:45 | E 15 | 10.00 | Mostly Cloudy | SCT030 BKN070 | 82.4 | 73.4 | 74% | 88 | 29.95 | 0.0 | ||||||
| 02 | 16:45 | E 14 G 23 | 10.00 | Mostly Cloudy | SCT030 BKN070 | 84.2 | 73.4 | 70% | 91 | 29.93 | 0.0 | ||||||
| 02 | 15:45 | E 10 G 17 | 10.00 | Mostly Cloudy | SCT030 BKN070 | 87.8 | 69.8 | 55% | 93 | 29.94 | 0.0 | ||||||
| 02 | 14:45 | E 17 | 10.00 | Mostly Cloudy | SCT030 BKN070 | 84.2 | 73.4 | 70% | 91 | 29.95 | 0.0 | ||||||
| 02 | 13:45 | E 16 G 25 | 10.00 | Mostly Cloudy | SCT040 BKN070 | 84.2 | 75.2 | 74% | 92 | 29.97 | 0.0 | ||||||
| 02 | 12:45 | E 18 | 10.00 | Partly Cloudy | SCT040 SCT070 | 84.2 | 75.2 | 74% | 92 | 29.99 | 0.0 | ||||||
| 02 | 11:45 | E 13 | 10.00 | Partly Cloudy | SCT035 SCT070 | 84.2 | 73.4 | 70% | 91 | 30.01 | 0.0 | ||||||
| 02 | 10:45 | E 15 | 10.00 | Partly Cloudy | SCT035 SCT070 | 84.2 | 73.4 | 70% | 91 | 30.03 | 0.0 | ||||||
| 02 | 09:45 | E 13 | 10.00 | Partly Cloudy | SCT035 SCT070 | 84.2 | 73.4 | 70% | 91 | 30.03 | 0.0 | ||||||
| 02 | 08:45 | E 13 | 10.00 | Partly Cloudy | SCT035 SCT070 | 82.4 | 73.4 | 74% | 88 | 30.02 | 0.0 | ||||||
| 02 | 07:45 | E 9 | 10.00 | Clear | SKC | 80.6 | 71.6 | 74% | 85 | 30 | 0.0 | ||||||
| 02 | 06:45 | SE 5 | 10.00 | Clear | SKC | 78.8 | 71.6 | 79% | 82 | 29.98 | 0.0 | ||||||
| 01 | 18:45 | E 14 | 8.00 | Showers in Vicinity | SCT030 BKN070 | 82.4 | 73.4 | 74% | 88 | 29.92 | 0.0 | ||||||
| Date | Time (ast) | Wind (mph) | Vis. (mi.) | Weather | Sky Cond. | Air | Dwpt | Max. | Min. | Relative Humidity | Wind Chill (°F) | Heat Index (°F) | altimeter (in) | sea level (mb) | 1 hr | 3 hr | 6 hr |
| 6 hour | |||||||||||||||||
| Temperature (ºF) | Pressure | Precipitation (in) | |||||||||||||||